Willow Bend, West Virginia
Current Conditions -  °F | °C
As of 6:15 AM on Wednesday 26 Nov 2014 (Local Time) from KLWB Reporting Station
Light Snow Light Snow  
Wind Chill: 34°   Ceiling: 1100
Heat Index: 34°   Visibility: 2mi
Dew Point: 33°   Wind: 0mph
Humidity: 95%   Direction: NA
Pressure: 29.99"   Gusts: NA
Location:  37.5611°N, 80.5102°W
Report Text: KLWB 261115Z AUTO 00000KT 2SM -SN BKN011 OVC015 01/01 A2999 RMK AO2 T00120005
Loading
Personal Weather Stations






























Interactive Weather Map New forecast layout! Learn more

10-Day Weather Forecast

Advertisements
Track Severe Weather on mobile